Time;durP1;ratioP1;P1;durP2;ratioP2;P2;SDS_P1;SDS_P2;PMS_P1;PMS_P2;Temp;Humidity;BMP_temperature;BMP_pressure;BME280_temperature;BME280_humidity;BME280_pressure;Samples;Min_cycle;Max_cycle;Signal;HPM_P1;HPM_P2
2021/12/22 00:01:28;;;;;;;;;17.50;16.50;;;;;21.45;51.27;101848.20;109367;1279;18936;-83
2021/12/22 00:03:55;;;;;;;;;19.00;17.00;;;;;21.45;51.35;101847.65;109131;1279;19824;-82
2021/12/22 00:06:23;;;;;;;;;20.00;17.00;;;;;21.44;51.04;101847.14;108892;1280;19116;-82
2021/12/22 00:08:51;;;;;;;;;18.00;17.33;;;;;21.45;51.16;101844.38;108912;1279;18983;-82
2021/12/22 00:11:18;;;;;;;;;19.00;17.00;;;;;21.47;51.20;101850.88;108880;1279;19863;-82
2021/12/22 00:13:45;;;;;;;;;16.00;16.00;;;;;21.45;51.14;101849.59;108892;1279;19132;-82
2021/12/22 00:16:12;;;;;;;;;20.00;16.00;;;;;21.46;51.21;101853.70;108900;1281;19078;-82
2021/12/22 00:18:39;;;;;;;;;16.33;13.33;;;;;21.46;51.02;101857.70;104952;1280;5190230;-81
2021/12/22 00:21:05;;;;;;;;;19.33;16.67;;;;;21.46;51.14;101855.54;108886;1280;20811;-82
2021/12/22 00:23:32;;;;;;;;;20.33;17.00;;;;;21.44;51.06;101855.50;108972;1279;18378;-82
2021/12/22 00:25:59;;;;;;;;;14.67;14.00;;;;;21.44;51.07;101855.32;108958;1279;20487;-82
2021/12/22 00:28:26;;;;;;;;;18.67;16.67;;;;;21.44;50.91;101858.21;108904;1279;19019;-84
2021/12/22 00:30:53;;;;;;;;;18.67;18.00;;;;;21.44;51.13;101854.98;108874;1281;18940;-83
2021/12/22 00:33:20;;;;;;;;;18.67;17.33;;;;;21.44;51.04;101852.86;108898;1279;20683;-82
2021/12/22 00:35:46;;;;;;;;;15.00;15.00;;;;;21.44;50.99;101855.39;108888;1279;18590;-82
2021/12/22 00:38:12;;;;;;;;;17.00;16.00;;;;;21.43;50.95;101857.95;108923;1279;19114;-82
2021/12/22 00:40:39;;;;;;;;;17.00;17.00;;;;;21.44;50.90;101858.08;108994;1279;19763;-81
2021/12/22 00:43:05;;;;;;;;;20.00;17.00;;;;;21.43;50.79;101859.96;108881;1280;20445;-82
2021/12/22 00:45:34;;;;;;;;;15.33;15.33;;;;;21.43;50.81;101862.38;108863;1279;18976;-82
2021/12/22 00:48:00;;;;;;;;;18.00;16.00;;;;;21.43;50.65;101861.45;108889;1280;19743;-82
2021/12/22 00:50:27;;;;;;;;;18.00;16.33;;;;;21.43;50.67;101863.23;108936;1280;18977;-81
2021/12/22 00:52:54;;;;;;;;;15.33;13.67;;;;;21.43;50.78;101866.02;108891;1279;19468;-81
2021/12/22 00:55:20;;;;;;;;;15.33;13.67;;;;;21.43;50.80;101867.48;108879;1279;19475;-81
2021/12/22 00:57:47;;;;;;;;;15.00;13.50;;;;;21.43;50.63;101873.98;108854;1280;19120;-82
2021/12/22 01:00:14;;;;;;;;;16.00;16.00;;;;;21.43;50.60;101869.26;108902;1280;18942;-82
2021/12/22 01:02:41;;;;;;;;;17.00;16.67;;;;;21.43;50.66;101870.42;108856;1280;22652;-81
2021/12/22 01:05:07;;;;;;;;;16.00;15.00;;;;;21.43;50.86;101869.98;108890;1279;18725;-82
2021/12/22 01:07:34;;;;;;;;;21.00;18.67;;;;;21.42;50.75;101870.55;108902;1279;21248;-81
2021/12/22 01:10:01;;;;;;;;;17.50;16.00;;;;;21.42;50.60;101874.44;108891;1279;19953;-82
2021/12/22 01:12:28;;;;;;;;;17.33;16.67;;;;;21.42;50.57;101875.05;108930;1280;18929;-81
2021/12/22 01:14:55;;;;;;;;;14.00;14.00;;;;;21.41;50.55;101878.94;108901;1279;18950;-82
2021/12/22 01:17:21;;;;;;;;;18.67;16.33;;;;;21.41;50.54;101880.92;108927;1280;19615;-83
2021/12/22 01:19:58;;;;;;;;;17.00;14.67;;;;;21.41;50.51;101877.49;108804;1279;18869;-83
2021/12/22 01:22:31;;;;;;;;;20.00;18.00;;;;;21.41;50.49;101877.81;108823;1279;18816;-84
2021/12/22 01:25:01;;;;;;;;;17.67;16.00;;;;;21.41;50.16;101885.50;108868;1279;21753;-82
2021/12/22 01:27:32;;;;;;;;;16.00;16.00;;;;;21.41;50.59;101884.56;108879;1280;18906;-83
2021/12/22 01:29:59;;;;;;;;;18.00;14.00;;;;;21.41;50.34;101885.33;108929;1279;20423;-83
2021/12/22 01:32:26;;;;;;;;;19.33;17.67;;;;;21.43;50.38;101882.42;108882;1279;19635;-82
2021/12/22 01:34:53;;;;;;;;;16.00;14.00;;;;;21.41;50.53;101883.81;108902;1279;18996;-82
2021/12/22 01:37:20;;;;;;;;;17.33;15.33;;;;;21.41;50.34;101886.73;108989;1279;19202;-82
2021/12/22 01:39:48;;;;;;;;;19.33;16.67;;;;;21.42;50.42;101888.63;108971;1279;22048;-82
2021/12/22 01:42:15;;;;;;;;;13.67;13.33;;;;;21.42;50.24;101888.86;108879;1280;19125;-83
2021/12/22 01:44:49;;;;;;;;;14.00;13.00;;;;;21.41;50.27;101888.60;108858;1279;21371;-83
2021/12/22 01:49:59;;;;;;;;;14.00;13.00;;;;;21.41;50.27;101889.89;108903;1279;18989;-82
2021/12/22 01:52:26;;;;;;;;;14.00;13.00;;;;;21.41;50.17;101890.79;108942;1280;19099;-82
2021/12/22 01:54:58;;;;;;;;;14.00;13.00;;;;;21.41;50.32;101894.95;108907;1281;21676;-82
2021/12/22 01:57:24;;;;;;;;;16.00;16.00;;;;;21.39;50.17;101893.29;108914;1280;18871;-80
2021/12/22 01:59:51;;;;;;;;;16.00;13.00;;;;;21.37;50.07;101886.96;108944;1279;19583;-83
2021/12/22 02:02:18;;;;;;;;;13.50;13.50;;;;;21.40;50.22;101891.27;109002;1279;19673;-82
2021/12/22 02:04:45;;;;;;;;;16.33;15.33;;;;;21.39;50.17;101891.36;108919;1280;19134;-83
2021/12/22 02:07:11;;;;;;;;;17.00;15.00;;;;;21.39;50.06;101889.66;108840;1281;19161;-82
2021/12/22 02:12:24;;;;;;;;;12.33;12.33;;;;;21.38;50.01;101892.70;108842;1279;19030;-83
2021/12/22 02:14:55;;;;;;;;;13.00;12.00;;;;;21.36;49.90;101885.80;108856;1280;19675;-82
2021/12/22 02:17:21;;;;;;;;;18.67;17.00;;;;;21.40;50.08;101894.90;108853;1279;20256;-81
2021/12/22 02:19:48;;;;;;;;;17.00;14.00;;;;;21.39;49.71;101894.38;108894;1279;20258;-82
2021/12/22 02:22:17;;;;;;;;;16.00;13.50;;;;;21.39;49.72;101896.41;108906;1279;18968;-82
2021/12/22 02:24:44;;;;;;;;;17.33;16.00;;;;;21.39;49.64;101898.39;108886;1279;19636;-82
2021/12/22 02:27:19;;;;;;;;;13.00;13.00;;;;;21.39;49.70;101900.70;108891;1279;19072;-82
2021/12/22 02:29:57;;;;;;;;;15.67;12.67;;;;;21.39;49.86;101897.70;108739;1281;18851;-83
2021/12/22 02:32:46;;;;;;;;;15.33;13.33;;;;;21.39;49.49;101901.12;108667;1280;20515;-83
2021/12/22 02:35:14;;;;;;;;;13.00;13.00;;;;;21.39;49.81;101901.52;108884;1279;20208;-82
2021/12/22 02:37:44;;;;;;;;;13.00;12.00;;;;;21.40;49.72;101901.08;110067;1279;19283;-81
2021/12/22 02:40:24;;;;;;;;;12.00;10.00;;;;;21.40;49.66;101904.73;110299;1279;20903;-82
2021/12/22 02:43:11;;;;;;;;;14.67;13.00;;;;;21.39;49.63;101904.02;109713;1280;22129;-83
2021/12/22 02:45:38;;;;;;;;;13.00;13.00;;;;;21.41;49.52;101904.42;108868;1280;19019;-83
2021/12/22 02:48:05;;;;;;;;;13.33;12.33;;;;;21.40;49.48;101906.34;108858;1279;21192;-82
2021/12/22 02:50:36;;;;;;;;;13.67;12.67;;;;;21.40;49.65;101906.63;108868;1280;19531;-82
2021/12/22 02:53:05;;;;;;;;;16.00;12.67;;;;;21.39;49.53;101908.21;108894;1279;18939;-81
2021/12/22 02:55:44;;;;;;;;;19.00;15.33;;;;;21.38;49.57;101909.73;108876;1279;23071;-82
2021/12/22 02:58:16;;;;;;;;;16.00;14.67;;;;;21.37;49.60;101910.48;108899;1279;19577;-81
2021/12/22 03:01:01;;;;;;;;;16.00;14.00;;;;;21.37;49.38;101910.48;108596;1279;19336;-81
2021/12/22 03:03:57;;;;;;;;;14.00;12.33;;;;;21.35;49.43;101905.34;108878;1280;19609;-83
2021/12/22 03:06:30;;;;;;;;;13.00;12.00;;;;;21.35;49.56;101906.29;108880;1279;18939;-83
2021/12/22 03:09:16;;;;;;;;;13.00;12.67;;;;;21.34;49.40;101906.67;108729;1280;19037;-83
2021/12/22 03:11:45;;;;;;;;;13.33;13.00;;;;;21.33;49.52;101901.15;108841;1280;20843;-83
2021/12/22 03:14:11;;;;;;;;;13.00;11.33;;;;;21.33;49.37;101903.00;108772;1279;18872;-84
2021/12/22 03:16:42;;;;;;;;;14.00;12.33;;;;;21.33;49.38;101903.55;108825;1280;19066;-81
2021/12/22 03:19:09;;;;;;;;;12.67;12.00;;;;;21.33;49.32;101902.28;108894;1279;20005;-81
2021/12/22 03:21:37;;;;;;;;;15.00;13.00;;;;;21.33;49.23;101910.67;108871;1279;22619;-81
2021/12/22 03:24:02;;;;;;;;;13.00;13.00;;;;;21.33;49.38;101910.45;108884;1280;18674;-81
2021/12/22 03:26:30;;;;;;;;;10.67;10.00;;;;;21.32;49.37;101911.67;108827;1280;19737;-81
2021/12/22 03:28:56;;;;;;;;;12.67;12.00;;;;;21.32;49.24;101913.08;108894;1279;18807;-81
2021/12/22 03:31:23;;;;;;;;;12.00;11.33;;;;;21.33;49.16;101910.45;108862;1280;22053;-81
2021/12/22 03:33:50;;;;;;;;;12.67;12.33;;;;;21.32;49.03;101910.38;108881;1279;19814;-81
2021/12/22 03:36:16;;;;;;;;;12.33;10.00;;;;;21.33;49.04;101911.58;108898;1279;18871;-82
2021/12/22 03:38:44;;;;;;;;;13.67;13.00;;;;;21.32;49.07;101909.67;108876;1279;19108;-82
2021/12/22 03:41:10;;;;;;;;;13.00;12.00;;;;;21.32;49.02;101915.40;108876;1279;19677;-81
2021/12/22 03:43:36;;;;;;;;;14.00;12.67;;;;;21.32;49.00;101914.92;108883;1279;18876;-82
2021/12/22 03:46:03;;;;;;;;;10.00;9.33;;;;;21.31;48.90;101913.00;108858;1279;19339;-82
2021/12/22 03:48:30;;;;;;;;;13.00;12.00;;;;;21.32;48.74;101913.98;108873;1279;20579;-82
2021/12/22 03:50:57;;;;;;;;;10.00;10.00;;;;;21.33;48.62;101916.46;108881;1280;19109;-82
2021/12/22 03:53:23;;;;;;;;;13.00;13.00;;;;;21.33;48.90;101914.21;108862;1279;19100;-82
2021/12/22 03:55:51;;;;;;;;;12.33;12.00;;;;;21.32;48.80;101913.22;108856;1281;19612;-82
2021/12/22 03:58:17;;;;;;;;;10.00;10.00;;;;;21.32;48.69;101914.92;109664;1279;18661;-83
2021/12/22 04:00:43;;;;;;;;;13.67;12.00;;;;;21.31;48.86;101914.52;109442;1279;19716;-82
2021/12/22 04:03:16;;;;;;;;;12.00;10.67;;;;;21.32;48.84;101909.81;108894;1279;19675;-83
2021/12/22 04:05:42;;;;;;;;;12.33;12.00;;;;;21.33;48.81;101911.70;108881;1280;18799;-83
2021/12/22 04:08:10;;;;;;;;;14.00;12.00;;;;;21.33;48.91;101912.09;108875;1280;18971;-82
2021/12/22 04:10:37;;;;;;;;;13.50;12.00;;;;;21.33;48.64;101911.37;108756;1280;19650;-82
2021/12/22 04:13:04;;;;;;;;;13.00;11.00;;;;;21.32;48.74;101910.70;108830;1279;20419;-83
2021/12/22 04:15:31;;;;;;;;;10.00;9.00;;;;;21.31;48.53;101909.42;108880;1280;18930;-82
2021/12/22 04:17:58;;;;;;;;;13.00;12.00;;;;;21.31;48.64;101908.80;108882;1279;19985;-82
2021/12/22 04:20:24;;;;;;;;;15.50;12.50;;;;;21.32;48.61;101909.46;108846;1278;18567;-82
2021/12/22 04:22:50;;;;;;;;;13.00;12.00;;;;;21.32;48.41;101907.08;108868;1281;19170;-82
2021/12/22 04:25:20;;;;;;;;;12.00;10.00;;;;;21.32;48.38;101906.19;108890;1279;19599;-82
2021/12/22 04:27:47;;;;;;;;;9.00;8.00;;;;;21.31;48.29;101905.40;108878;1280;19069;-83
2021/12/22 04:30:15;;;;;;;;;13.00;12.00;;;;;21.31;48.36;101907.38;108912;1280;23023;-83
2021/12/22 04:32:42;;;;;;;;;10.00;9.00;;;;;21.30;48.29;101911.09;108864;1279;19686;-82
2021/12/22 04:35:08;;;;;;;;;14.00;11.00;;;;;21.31;48.32;101914.49;108839;1279;18542;-82
2021/12/22 04:37:35;;;;;;;;;11.33;9.67;;;;;21.31;48.21;101912.69;108906;1279;19167;-82
2021/12/22 04:40:02;;;;;;;;;12.00;10.00;;;;;21.30;48.22;101913.98;108865;1279;19500;-82
2021/12/22 04:42:30;;;;;;;;;13.67;12.33;;;;;21.31;48.14;101915.97;108885;1280;18870;-82
2021/12/22 04:44:58;;;;;;;;;8.67;8.67;;;;;21.29;48.05;101910.10;108875;1280;22836;-83
2021/12/22 04:47:24;;;;;;;;;9.33;8.67;;;;;21.29;47.98;101911.58;108845;1279;20008;-83
2021/12/22 04:49:51;;;;;;;;;10.00;10.00;;;;;21.30;48.18;101908.08;108894;1279;18660;-84
2021/12/22 04:52:20;;;;;;;;;10.00;9.33;;;;;21.30;47.97;101911.69;108891;1279;19202;-83
2021/12/22 04:55:01;;;;;;;;;14.00;12.00;;;;;21.29;48.08;101911.73;108859;1279;19857;-84
2021/12/22 04:57:46;;;;;;;;;11.33;10.00;;;;;21.28;47.92;101911.45;108572;1282;18868;-83
2021/12/22 05:00:13;;;;;;;;;10.67;9.33;;;;;21.28;47.97;101912.02;108888;1279;19360;-84
2021/12/22 05:02:39;;;;;;;;;13.00;12.67;;;;;21.28;47.97;101913.25;108875;1280;20895;-81
2021/12/22 05:05:06;;;;;;;;;13.00;10.67;;;;;21.27;47.83;101910.83;108765;1280;19149;-84
2021/12/22 05:07:32;;;;;;;;;9.50;9.50;;;;;21.27;48.00;101913.22;108844;1280;19230;-82
2021/12/22 05:09:59;;;;;;;;;11.33;11.33;;;;;21.27;47.86;101915.04;108883;1281;20368;-82
2021/12/22 05:12:26;;;;;;;;;13.00;10.00;;;;;21.28;47.85;101919.66;108884;1279;18760;-82
2021/12/22 05:14:52;;;;;;;;;11.00;9.00;;;;;21.28;47.91;101923.70;108873;1280;18892;-81
2021/12/22 05:17:26;;;;;;;;;13.00;10.00;;;;;21.28;47.86;101928.41;108884;1279;19606;-82
2021/12/22 05:19:53;;;;;;;;;12.00;10.00;;;;;21.27;47.78;101925.77;108866;1280;19701;-82
2021/12/22 05:22:19;;;;;;;;;13.00;11.00;;;;;21.26;47.72;101927.48;108873;1279;18889;-82
2021/12/22 05:24:46;;;;;;;;;9.67;8.67;;;;;21.27;47.60;101929.94;108929;1280;21156;-83
2021/12/22 05:27:13;;;;;;;;;10.00;10.00;;;;;21.25;47.78;101925.03;108888;1280;18974;-83
2021/12/22 05:29:40;;;;;;;;;13.00;9.00;;;;;21.27;47.54;101930.33;108863;1280;19319;-83
2021/12/22 05:32:07;;;;;;;;;12.33;10.00;;;;;21.26;47.58;101930.36;108911;1280;19889;-82
2021/12/22 05:34:33;;;;;;;;;14.00;12.00;;;;;21.27;47.75;101932.52;108901;1279;21242;-82
2021/12/22 05:37:00;;;;;;;;;12.00;10.00;;;;;21.27;47.75;101928.30;108928;1279;18617;-82
2021/12/22 05:39:27;;;;;;;;;10.00;9.33;;;;;21.29;47.82;101933.23;108870;1279;19636;-84
2021/12/22 05:41:54;;;;;;;;;13.67;12.00;;;;;21.30;47.29;101933.31;108570;1280;18854;-83
2021/12/22 05:44:20;;;;;;;;;12.00;12.00;;;;;21.29;47.42;101934.44;108880;1280;19282;-81
2021/12/22 05:46:47;;;;;;;;;11.00;10.00;;;;;21.31;47.53;101934.31;108892;1279;19656;-81
2021/12/22 05:49:14;;;;;;;;;12.00;10.00;;;;;21.31;47.77;101931.90;108896;1280;20353;-81
2021/12/22 05:51:41;;;;;;;;;13.00;12.00;;;;;21.32;47.77;101938.03;108910;1279;20275;-81
2021/12/22 05:54:08;;;;;;;;;12.00;10.00;;;;;21.31;47.35;101939.36;108880;1280;19537;-82
2021/12/22 05:56:34;;;;;;;;;9.50;9.50;;;;;21.32;47.49;101946.35;108853;1280;22582;-81
2021/12/22 05:59:01;;;;;;;;;12.00;12.00;;;;;21.30;47.35;101947.61;108905;1279;19691;-81
2021/12/22 06:01:30;;;;;;;;;9.50;9.50;;;;;21.32;47.41;101950.77;108897;1279;19809;-81
2021/12/22 06:04:06;;;;;;;;;17.00;13.33;;;;;21.33;47.30;101959.77;108883;1281;18850;-81
2021/12/22 06:06:32;;;;;;;;;13.33;13.00;;;;;21.34;47.43;101965.12;108916;1279;19008;-80
2021/12/22 06:08:59;;;;;;;;;15.33;12.00;;;;;21.36;47.57;101970.39;108909;1279;20963;-82
2021/12/22 06:11:26;;;;;;;;;12.00;12.00;;;;;21.36;47.21;101977.45;109117;1279;19186;-82
2021/12/22 06:13:53;;;;;;;;;13.33;9.67;;;;;21.34;47.28;101983.57;108885;1279;19128;-81
2021/12/22 06:16:20;;;;;;;;;12.00;11.33;;;;;21.34;47.26;101986.19;108895;1279;19614;-82
2021/12/22 06:18:54;;;;;;;;;13.00;12.00;;;;;21.33;47.14;101986.96;108908;1279;19115;-81
2021/12/22 06:21:27;;;;;;;;;10.00;10.00;;;;;21.32;47.30;101994.41;108924;1279;19871;-82
2021/12/22 06:23:54;;;;;;;;;12.00;12.00;;;;;21.33;47.28;101999.71;108838;1280;19629;-82
2021/12/22 06:26:20;;;;;;;;;13.00;12.00;;;;;21.31;47.31;101995.56;108920;1280;19093;-82
2021/12/22 06:28:47;;;;;;;;;15.00;13.50;;;;;21.36;47.55;102002.73;108887;1279;19021;-84
2021/12/22 06:31:15;;;;;;;;;12.33;12.00;;;;;21.40;47.33;102001.20;108924;1280;19894;-82
2021/12/22 06:33:42;;;;;;;;;13.00;12.33;;;;;21.41;47.34;101998.41;108873;1280;19102;-81
2021/12/22 06:36:09;;;;;;;;;15.33;12.33;;;;;21.41;47.19;101996.98;108940;1281;19691;-81
2021/12/22 06:38:35;;;;;;;;;12.00;10.00;;;;;21.46;47.58;101995.12;108890;1280;19304;-82
2021/12/22 06:41:04;;;;;;;;;12.00;12.00;;;;;21.53;48.00;102001.34;108902;1279;18932;-82
2021/12/22 06:43:32;;;;;;;;;12.00;12.00;;;;;21.56;48.16;102008.55;108911;1279;19685;-83
2021/12/22 06:46:02;;;;;;;;;12.00;10.67;;;;;21.62;48.68;102014.55;108989;1279;20799;-82
2021/12/22 06:48:36;;;;;;;;;13.00;12.67;;;;;21.64;48.69;102014.88;108642;1280;19041;-82
2021/12/22 06:51:02;;;;;;;;;14.00;14.00;;;;;21.64;48.66;102020.00;108891;1280;19238;-82
2021/12/22 06:53:31;;;;;;;;;14.00;13.00;;;;;21.65;48.86;102023.85;108996;1279;22581;-84
2021/12/22 06:56:13;;;;;;;;;16.33;15.00;;;;;21.63;48.89;102023.93;109829;1281;19467;-85
2021/12/22 06:58:40;;;;;;;;;16.00;13.67;;;;;21.63;49.25;102021.11;110353;1280;19527;-86
2021/12/22 07:01:08;;;;;;;;;16.50;13.00;;;;;21.67;49.20;102022.59;109555;1279;19645;-84
2021/12/22 07:03:34;;;;;;;;;12.00;12.00;;;;;21.69;49.06;102020.70;108911;1279;19121;-83
2021/12/22 07:06:00;;;;;;;;;12.00;10.00;;;;;21.68;48.99;102021.71;108914;1279;19243;-84
2021/12/22 07:08:34;;;;;;;;;14.00;12.33;;;;;21.70;48.91;102020.70;109029;1280;19547;-84
2021/12/22 07:11:00;;;;;;;;;11.00;10.00;;;;;21.73;48.82;102021.67;108944;1281;18936;-84
2021/12/22 07:13:35;;;;;;;;;13.00;13.00;;;;;21.72;48.76;102016.95;108982;1280;21226;-82
2021/12/22 07:16:02;;;;;;;;;19.33;13.33;;;;;21.71;48.98;102021.13;108979;1279;20071;-81
2021/12/22 07:18:28;;;;;;;;;15.00;13.00;;;;;21.71;48.91;102022.92;108962;1279;21084;-81
2021/12/22 07:20:54;;;;;;;;;15.00;14.00;;;;;21.73;48.57;102025.46;108910;1279;18963;-81
2021/12/22 07:23:20;;;;;;;;;17.33;13.67;;;;;21.65;49.08;102023.48;108903;1279;19604;-81
2021/12/22 07:25:48;;;;;;;;;14.00;11.00;;;;;21.61;48.95;102024.56;108904;1279;19108;-82
2021/12/22 07:28:21;;;;;;;;;13.67;11.00;;;;;21.65;49.13;102026.25;108919;1280;18974;-82
2021/12/22 07:30:48;;;;;;;;;14.00;13.50;;;;;21.63;49.10;102026.41;108623;1280;19630;-82
2021/12/22 07:33:14;;;;;;;;;16.67;14.00;;;;;21.64;49.22;102032.34;108907;1279;18939;-82
2021/12/22 07:35:40;;;;;;;;;13.00;12.00;;;;;21.65;49.41;102039.34;108903;1280;20404;-80
2021/12/22 07:38:08;;;;;;;;;14.00;14.00;;;;;21.66;49.85;102038.39;108617;1280;19620;-81
2021/12/22 07:40:36;;;;;;;;;10.67;10.33;;;;;21.66;50.13;102040.66;108619;1282;18943;-81
2021/12/22 07:43:02;;;;;;;;;15.00;13.00;;;;;21.70;50.89;102043.77;109206;1281;19046;-81
2021/12/22 07:45:29;;;;;;;;;15.33;13.67;;;;;21.74;51.19;102041.39;109403;1279;19582;-81
2021/12/22 07:47:56;;;;;;;;;13.67;12.33;;;;;21.74;51.10;102046.38;108876;1280;19160;-82
2021/12/22 07:50:26;;;;;;;;;11.00;11.00;;;;;21.75;51.80;102047.10;108925;1279;22860;-82
2021/12/22 07:53:08;;;;;;;;;15.33;13.67;;;;;21.78;53.03;102044.96;108759;1281;19585;-84
2021/12/22 07:55:37;;;;;;;;;15.00;13.00;;;;;21.78;52.72;102049.67;108817;1282;21592;-84
2021/12/22 07:58:07;;;;;;;;;17.00;16.33;;;;;21.81;53.05;102049.56;108827;1281;22860;-83
2021/12/22 08:00:41;;;;;;;;;20.00;13.00;;;;;21.83;52.47;102047.35;109144;1282;20543;-85
2021/12/22 08:03:08;;;;;;;;;15.00;13.50;;;;;21.84;52.36;102046.16;108849;1281;23035;-83
2021/12/22 08:05:35;;;;;;;;;13.00;13.00;;;;;21.82;52.39;102044.01;108763;1281;19185;-84
2021/12/22 08:08:02;;;;;;;;;13.67;10.33;;;;;21.83;52.17;102044.99;108777;1280;21108;-84
2021/12/22 08:10:28;;;;;;;;;13.00;11.00;;;;;21.83;51.93;102046.44;108781;1280;19062;-84
2021/12/22 08:12:57;;;;;;;;;14.50;14.00;;;;;21.83;51.77;102048.80;108790;1281;18869;-83
2021/12/22 08:15:31;;;;;;;;;14.00;11.33;;;;;21.81;51.93;102049.54;108817;1281;19647;-84
2021/12/22 08:17:57;;;;;;;;;14.00;14.00;;;;;21.80;51.67;102048.77;108777;1281;18874;-84
2021/12/22 08:20:24;;;;;;;;;15.33;14.33;;;;;21.78;51.63;102050.59;106787;1282;20878;-82
2021/12/22 08:22:50;;;;;;;;;17.33;15.00;;;;;21.78;51.74;102049.81;108782;1281;18412;-83
2021/12/22 08:25:16;;;;;;;;;14.33;13.00;;;;;21.85;51.27;102053.54;108890;1281;18551;-83
2021/12/22 08:27:42;;;;;;;;;18.00;16.00;;;;;21.91;50.97;102054.42;108931;1279;18583;-83
2021/12/22 08:30:08;;;;;;;;;14.00;13.00;;;;;21.96;50.77;102051.34;108905;1280;21080;-83
2021/12/22 08:32:37;;;;;;;;;20.00;17.33;;;;;22.00;50.16;102051.26;108772;1280;18701;-83
2021/12/22 08:35:06;;;;;;;;;19.33;18.00;;;;;21.99;49.76;102045.91;108924;1280;18929;-83
2021/12/22 08:40:19;;;;;;;;;102.00;74.00;;;;;21.99;49.59;102043.25;108964;1279;19567;-83
2021/12/22 08:42:49;;;;;;;;;87.00;62.00;;;;;21.96;49.36;102047.55;108937;1279;18970;-82
2021/12/22 08:45:18;;;;;;;;;128.33;97.00;;;;;21.94;49.06;102047.69;108987;1279;19964;-83
2021/12/22 08:47:45;;;;;;;;;152.00;114.67;;;;;21.93;49.06;102053.66;109142;1280;18740;-82
2021/12/22 08:50:10;;;;;;;;;202.75;148.50;;;;;21.93;49.17;102052.55;109910;1279;18947;-84
2021/12/22 08:52:37;;;;;;;;;203.00;145.50;;;;;21.93;49.15;102049.06;109297;1280;19496;-84
2021/12/22 08:55:12;;;;;;;;;195.50;148.00;;;;;22.00;49.22;102053.65;108942;1279;19288;-83
2021/12/22 08:57:38;;;;;;;;;183.00;134.75;;;;;22.09;48.91;102058.38;108909;1280;19179;-83
2021/12/22 09:00:25;;;;;;;;;169.00;132.75;;;;;22.12;49.22;102062.52;108887;1280;19676;-83
2021/12/22 09:02:57;;;;;;;;;145.50;109.25;;;;;22.13;49.42;102060.79;108925;1280;19261;-84
2021/12/22 09:05:27;;;;;;;;;124.00;95.33;;;;;22.19;48.61;102062.59;109035;1279;19272;-84
2021/12/22 09:07:53;;;;;;;;;142.00;103.33;;;;;22.17;48.57;102060.19;108999;1279;19961;-83
2021/12/22 09:10:19;;;;;;;;;118.67;93.33;;;;;22.16;48.98;102066.32;108942;1279;18929;-83
2021/12/22 09:12:47;;;;;;;;;108.50;84.00;;;;;22.09;48.97;102068.00;108975;1279;18964;-84
2021/12/22 09:15:17;;;;;;;;;102.67;80.67;;;;;22.05;47.96;102069.02;108891;1280;22507;-84
2021/12/22 09:17:44;;;;;;;;;105.00;82.00;;;;;21.99;47.44;102065.40;108988;1279;19755;-84
2021/12/22 09:20:11;;;;;;;;;105.00;80.00;;;;;21.98;47.35;102069.70;108950;1280;18914;-84
2021/12/22 09:22:38;;;;;;;;;96.50;70.50;;;;;21.97;46.75;102064.91;108902;1279;20590;-84
2021/12/22 09:25:05;;;;;;;;;88.50;65.50;;;;;21.94;45.43;102065.91;108854;1279;19303;-84
2021/12/22 09:27:31;;;;;;;;;79.33;61.00;;;;;21.88;43.01;102061.45;108607;1280;18937;-84
2021/12/22 09:30:14;;;;;;;;;80.00;59.33;;;;;21.80;42.60;102064.60;108921;1279;20619;-84
2021/12/22 09:32:40;;;;;;;;;78.33;58.67;;;;;21.79;42.11;102062.50;108600;1280;18873;-83
2021/12/22 09:35:06;;;;;;;;;79.00;58.00;;;;;21.79;41.73;102057.08;108662;1281;19016;-84
2021/12/22 09:37:34;;;;;;;;;75.33;56.67;;;;;21.78;41.21;102058.95;108975;1279;19678;-83
2021/12/22 09:40:02;;;;;;;;;66.67;52.33;;;;;21.76;40.41;102058.96;108934;1280;19527;-83
2021/12/22 09:42:28;;;;;;;;;75.33;54.67;;;;;21.68;40.40;102055.63;108901;1279;18689;-83
2021/12/22 09:44:58;;;;;;;;;63.33;48.00;;;;;21.67;40.29;102052.73;108908;1279;19814;-84
2021/12/22 09:47:41;;;;;;;;;63.00;51.00;;;;;21.63;39.37;102052.44;108930;1279;20638;-82
2021/12/22 09:50:09;;;;;;;;;65.33;51.33;;;;;21.65;39.42;102051.89;109028;1281;20371;-83
2021/12/22 09:52:36;;;;;;;;;65.33;49.33;;;;;21.60;39.07;102053.10;108812;1281;19569;-83
2021/12/22 09:55:04;;;;;;;;;58.00;47.00;;;;;21.59;38.89;102049.91;108690;1281;18888;-83
2021/12/22 09:57:53;;;;;;;;;59.67;48.00;;;;;21.54;38.15;102046.23;108918;1280;22878;-83
2021/12/22 10:00:20;;;;;;;;;62.67;44.33;;;;;21.47;38.45;102043.27;109075;1279;19592;-83
2021/12/22 10:02:46;;;;;;;;;51.00;44.00;;;;;21.40;38.52;102037.04;108991;1280;22947;-85
2021/12/22 10:05:16;;;;;;;;;44.67;40.33;;;;;21.41;39.09;102038.24;108944;1279;18947;-83
2021/12/22 10:07:50;;;;;;;;;54.00;42.50;;;;;21.41;38.30;102039.71;108954;1279;19633;-84
2021/12/22 10:10:16;;;;;;;;;49.00;40.00;;;;;21.39;38.09;102039.37;108877;1279;18731;-85
2021/12/22 10:12:46;;;;;;;;;47.33;40.33;;;;;21.37;37.89;102033.89;108918;1279;22126;-83
2021/12/22 10:15:16;;;;;;;;;41.00;37.00;;;;;21.43;38.27;102032.92;108993;1279;20686;-82
2021/12/22 10:17:44;;;;;;;;;51.33;40.33;;;;;21.48;38.94;102034.08;108939;1280;19559;-84
2021/12/22 10:20:13;;;;;;;;;42.67;38.00;;;;;21.53;39.44;102035.56;108881;1279;18943;-85
2021/12/22 10:22:43;;;;;;;;;43.50;35.00;;;;;21.56;40.15;102037.05;108908;1280;19857;-84
2021/12/22 10:25:10;;;;;;;;;39.50;37.00;;;;;21.58;40.34;102037.86;108885;1280;18633;-84
2021/12/22 10:27:36;;;;;;;;;41.00;35.00;;;;;21.55;40.66;102032.13;108888;1280;18859;-84
2021/12/22 10:30:22;;;;;;;;;36.67;29.00;;;;;21.55;40.95;102036.84;108855;1279;20485;-84
2021/12/22 10:32:56;;;;;;;;;42.00;37.67;;;;;21.57;40.59;102034.44;108560;1282;19461;-84
2021/12/22 10:35:22;;;;;;;;;41.00;35.00;;;;;21.58;40.77;102033.42;108536;1283;18731;-84
2021/12/22 10:37:52;;;;;;;;;36.67;30.00;;;;;21.57;40.99;102033.33;108834;1279;19651;-86
2021/12/22 10:40:21;;;;;;;;;37.00;35.00;;;;;21.56;41.33;102037.83;108832;1281;19874;-86
2021/12/22 10:42:47;;;;;;;;;44.00;35.00;;;;;21.56;40.97;102033.29;108893;1279;18924;-86
2021/12/22 10:45:15;;;;;;;;;33.50;31.00;;;;;21.57;41.29;102029.38;108614;1281;20845;-83
2021/12/22 10:49:14;;;;;;;;;37.00;35.50;;;;;21.57;41.75;102030.61;108887;1280;23049;-83
2021/12/22 10:50:42;;;;;;;;;35.33;33.33;;;;;21.56;41.40;102020.38;108826;1280;20031;-82
2021/12/22 10:53:09;;;;;;;;;33.33;29.67;;;;;21.57;41.34;102025.90;108886;1280;19505;-84
2021/12/22 10:55:37;;;;;;;;;41.00;34.50;;;;;21.58;41.39;102021.60;108918;1279;19134;-82
2021/12/22 10:58:03;;;;;;;;;35.00;30.00;;;;;21.57;41.17;102022.28;108918;1279;18881;-83
2021/12/22 11:00:30;;;;;;;;;35.50;29.00;;;;;21.54;41.33;102018.44;108908;1278;19854;-84
2021/12/22 11:03:00;;;;;;;;;35.50;30.00;;;;;21.54;41.55;102014.58;108934;1279;18815;-82
2021/12/22 11:05:28;;;;;;;;;33.33;32.00;;;;;21.58;41.73;102011.77;108859;1280;19044;-82
2021/12/22 11:07:56;;;;;;;;;31.67;29.00;;;;;21.64;42.49;102013.64;108929;1280;20283;-83
2021/12/22 11:10:24;;;;;;;;;31.00;25.33;;;;;21.70;43.08;102011.69;108960;1279;18817;-83
2021/12/22 11:12:51;;;;;;;;;31.00;28.00;;;;;21.76;43.81;102011.23;110029;1279;18959;-83
2021/12/22 11:15:22;;;;;;;;;33.67;29.33;;;;;21.81;44.26;102003.11;110512;1279;20401;-84
2021/12/22 11:17:49;;;;;;;;;36.00;28.00;;;;;21.68;44.54;102009.56;110358;1278;18923;-85